Airfield :
LOGIN :

Register | Disclaimer

   EN    FR    IT 

 










Legend :    VFR   Marginal VFR   IFR   Intensive IFR   Very Intensive IFR
Visi :
Ceiling :
>= 8 km
>= 3000ft
5 to 8 km
1000 to 3000 ft
1500m to 5 km
500 to 1000 ft
800 to 1500m
200 to 500 ft
< 800m
< 200 ft
Symbols :   Thunderstorms  Fog  Heavy snow  Heavy precipitations  Wind > 20 kt
SIGMETs :     Misc.  Thunderstorms  Icing  Turbulence  Mountain Waves  Volcanic Ashes






- Airport Elevation : 126 ft
- IATA code : WIC


EGPC - Wick

CURRENT METAR :
  • 251250Z 25006KT 9999 SCT016 04/01 Q0988

EXPIRED METARs :
  • 251220Z 25005KT 9999 SCT016 04/01 Q0989
  • 251150Z 23005KT 190V260 9999 FEW008 SCT016 04/01 Q0989
  • 251120Z 22004KT 190V250 9999 FEW008 SCT016 04/01 Q0989
  • 251050Z VRB03KT 9999 VCSH FEW008 SCT016 03/02 Q0989
  • 251020Z 22003KT 9999 VCSH FEW008 SCT016 02/01 Q0989

TAF TAF EGPC
Valid from the 25 at 12:00 until the 25 at 21:00 UTC


251055Z 2512/2521 27008KT 9999 SCT018
ATIS : +44 1955 607 596



MET'MAP, your aeronautical weather chart ! - Copyright ORBIFLY December 2007 - Disclaimer

ORBIFLY MET'MAP TEAM :

Programming & Development : Alexandra Zaïnal
Concept & original design : Baudouin d'Aumeries
Assistance for programming : Marc-Olivier Méhu
Technical & hardware support : Manuel Goepfert

Contact : metmap@orbifly.com




SOURCES & CREDITS :

   NOAA